دوحة, قطر

01:16 PM AST on هاêè 23, 2015 (GMT +0300)
Wakra | | Change Station
CLOSE
Current Station
Personal Weather Stations
Location: Wakra, WAKRA
Elevation: 23 ft
Nearby Weather Stations

Elev 23 ft 25.17 °N, 51.60 °E | Updated 5 seconds ago

Clear
صافية
106.2 °F
Feels Like 115 °F
N
5.4
ريح متغير ريح from شرق
Gusts 6.3 mph

هذا اليوم
High -- | Low -- °F
--% Chance of Precip.
Yesterday
High -- | Low -- °F
Precip. -- في
4:45 AM 6:15 PM
الهلال الأول, 28% visible
الضغط 29.66 في
وضوح الرؤية 6.2 أميال
سحابات صافية
مؤشر الحرارة 115 °F
نقطة الندى 69 °F
الرطوبة 31%
Rainfall 0.00 في
عمق الثلج Not available.
الأشعة فوق البنفسجية 11 out of 12
Pollen Not available.
جودة الهواء Not available.
Flu Activity Not available.
METAR KQIR 230958Z 26007KT 9999 CLR 44/02 A2966 RMK AO2A SLP044 T04410015

More Conditions Fewer Conditions

الضغط 29.66 في
وضوح الرؤية 6.2 أميال
سحابات صافية
مؤشر الحرارة 115 °F
نقطة الندى 69 °F
الرطوبة 31%
Rainfall 0.00 في
عمق الثلج Not available.
الأشعة فوق البنفسجية 11 out of 12
Pollen Not available.
جودة الهواء Not available.
Flu Activity Not available.
METAR KQIR 230958Z 26007KT 9999 CLR 44/02 A2966 RMK AO2A SLP044 T04410015

More Conditions Fewer Conditions

10-Day Weather Forecast

Almanac

علم الفلك

May. 23, 2015 Rise Set
Actual Time
Civil Twilight
Nautical Twilight
Astronomical Twilight
قمر
Length Of Visible Light
طول الیوم
Tomorrow will be .
, % of the Moon is Illuminated

Today's Extremes

Country Highs Country Lows

Community

WunderPhotos

Upload Photos

1,823,406 photos uploaded!

WunderBlogs® & News

Nearby

جودة الهواء

  جودة الهواء AQ Index Pollutant
Not available.

عمق الثلج

Station Depth Elevation

Earthquake Activity

City Distance Mag. Time & Date
Minimum magnitude displayed is 2.5.

Coastal Water Temperatures

مكان درجات الحرارة

Stations

Nearby Weather Stations

Station Location الحرارة رياح باردة نقطة الندى الرطوبة ريح Precip. Elev تحديث Type